Eastpoint, Florida
Current Conditions -  °F | °C
As of 2:13 AM on Sunday 23 Nov 2014 (Local Time) from KAAF Reporting Station
Haze Haze  
Wind Chill: 68°   Ceiling: 500
Heat Index: 68°   Visibility: 6mi
Dew Point: 65°   Wind: 16mph
Humidity: 90%   Direction: 120°ESE
Pressure: 29.95"   Gusts: 23mph
Location:  29.74°N, 84.88°W
Report Text: KAAF 230713Z AUTO 12014G20KT 6SM BR OVC005 20/18 A2995 RMK AO2 RAE00 CIG 003V007 PRESFR P0000 T02000183 TSNO
Loading
Personal Weather Stations






























Interactive Weather Map New forecast layout! Learn more

10-Day Weather Forecast

Advertisements
Track Severe Weather on mobile